createdAt,value
2018-04-10T00:00:58.563Z,11.63
2018-04-10T00:03:26.463Z,12.10
2018-04-10T00:05:53.966Z,10.50
2018-04-10T00:08:21.472Z,13.53
2018-04-10T00:10:48.878Z,12.10
2018-04-10T00:13:16.451Z,11.63
2018-04-10T00:15:44.025Z,11.00
2018-04-10T00:18:11.442Z,12.40
2018-04-10T00:20:38.895Z,10.90
2018-04-10T00:23:06.280Z,11.03
2018-04-10T00:25:34.421Z,12.70
2018-04-10T00:28:01.971Z,10.70
2018-04-10T00:30:29.561Z,11.03
2018-04-10T00:32:57.019Z,10.17
2018-04-10T00:35:24.402Z,11.00
2018-04-10T00:37:51.799Z,12.33
2018-04-10T00:40:20.225Z,10.83
2018-04-10T00:42:48.310Z,10.03
2018-04-10T00:45:15.721Z,10.77
2018-04-10T00:47:43.215Z,10.70
2018-04-10T00:50:10.623Z,9.90
2018-04-10T00:52:38.022Z,10.73
2018-04-10T00:55:06.250Z,10.00
2018-04-10T00:57:33.631Z,10.20
2018-04-10T01:00:01.143Z,11.63
2018-04-10T01:02:28.571Z,10.20
2018-04-10T01:04:55.992Z,10.13
2018-04-10T01:07:23.403Z,9.47
2018-04-10T01:09:50.802Z,11.67
2018-04-10T01:12:18.157Z,8.73
2018-04-10T01:14:45.801Z,10.20
2018-04-10T01:17:13.419Z,10.00
2018-04-10T01:19:40.816Z,10.43
2018-04-10T01:22:08.215Z,9.50
2018-04-10T01:24:35.721Z,8.60
2018-04-10T01:27:03.098Z,8.40
2018-04-10T01:29:30.478Z,9.23
2018-04-10T01:31:57.891Z,9.20
2018-04-10T01:34:25.425Z,9.20
2018-04-10T01:36:52.910Z,11.40
2018-04-10T01:39:20.279Z,9.60
2018-04-10T01:41:47.998Z,10.37
2018-04-10T01:44:15.701Z,8.93
2018-04-10T01:46:43.089Z,10.07
2018-04-10T01:49:10.462Z,8.60
2018-04-10T01:51:37.862Z,8.73
2018-04-10T01:54:05.461Z,8.13
2018-04-10T01:56:40.622Z,9.23
2018-04-10T01:59:10.195Z,8.23
2018-04-10T02:01:37.567Z,8.20
2018-04-10T02:04:04.955Z,8.87
2018-04-10T02:06:32.347Z,7.97
2018-04-10T02:08:59.780Z,8.87
2018-04-10T02:11:27.592Z,9.10
2018-04-10T02:13:55.097Z,11.80
2018-04-10T02:16:22.710Z,10.20
2018-04-10T02:18:50.139Z,8.53
2018-04-10T02:21:17.527Z,8.80
2018-04-10T02:23:44.978Z,8.97
2018-04-10T02:26:12.366Z,9.10
2018-04-10T02:28:39.766Z,8.80
2018-04-10T02:31:07.823Z,9.83
2018-04-10T02:33:35.339Z,9.90
2018-04-10T02:36:03.203Z,9.30
2018-04-10T02:38:30.599Z,9.43
2018-04-10T02:40:58.195Z,8.53
2018-04-10T02:43:25.556Z,9.70
2018-04-10T02:45:52.935Z,9.83
2018-04-10T02:48:20.408Z,13.20
2018-04-10T02:50:47.892Z,10.77
2018-04-10T02:53:15.288Z,9.50
2018-04-10T02:55:42.679Z,10.23
2018-04-10T02:58:10.107Z,9.20
2018-04-10T03:00:37.514Z,9.40
2018-04-10T03:03:05.240Z,10.67
2018-04-10T03:05:32.657Z,10.03
2018-04-10T03:08:00.058Z,9.23
2018-04-10T03:10:27.456Z,8.83
2018-04-10T03:12:54.837Z,10.23
2018-04-10T03:15:22.397Z,9.97
2018-04-10T03:17:49.793Z,10.77
2018-04-10T03:20:17.203Z,10.27
2018-04-10T03:22:44.595Z,9.33
2018-04-10T03:25:12.100Z,10.90
2018-04-10T03:27:39.494Z,10.43
2018-04-10T03:30:06.863Z,10.10
2018-04-10T03:32:34.246Z,10.63
2018-04-10T03:35:01.624Z,9.27
2018-04-10T03:37:29.010Z,10.17
2018-04-10T03:39:56.396Z,9.87
2018-04-10T03:42:24.153Z,10.23
2018-04-10T03:44:51.540Z,9.10
2018-04-10T03:47:18.931Z,8.97
2018-04-10T03:49:46.298Z,9.93
2018-04-10T03:52:13.820Z,9.57
2018-04-10T03:54:41.205Z,10.30
2018-04-10T03:57:08.574Z,11.47
2018-04-10T03:59:35.977Z,9.40
2018-04-10T04:02:03.522Z,12.10
2018-04-10T04:04:30.900Z,10.57
2018-04-10T04:06:58.356Z,10.10
2018-04-10T04:09:26.139Z,12.53
2018-04-10T04:11:53.523Z,9.40
2018-04-10T04:14:21.032Z,9.70
2018-04-10T04:17:00.080Z,10.30
2018-04-10T04:19:39.244Z,9.47
2018-04-10T04:22:18.338Z,9.03
2018-04-10T04:24:45.731Z,11.13
2018-04-10T04:27:13.109Z,9.53
2018-04-10T04:29:40.592Z,11.13
2018-04-10T04:32:07.967Z,10.10
2018-04-10T04:34:35.375Z,10.60
2018-04-10T04:37:02.815Z,10.07
2018-04-10T04:39:30.196Z,10.80
2018-04-10T04:41:57.568Z,8.60
2018-04-10T04:44:24.986Z,9.60
2018-04-10T04:46:52.369Z,9.83
2018-04-10T04:49:20.947Z,9.33
2018-04-10T04:51:48.322Z,8.60
2018-04-10T04:54:15.734Z,9.47
2018-04-10T04:56:43.132Z,8.57
2018-04-10T04:59:10.499Z,9.13
2018-04-10T05:01:37.894Z,9.23
2018-04-10T05:04:05.262Z,10.47
2018-04-10T05:06:32.650Z,9.10
2018-04-10T05:09:00.046Z,10.70
2018-04-10T05:11:27.417Z,14.83
2018-04-10T05:13:54.883Z,13.20
2018-04-10T05:16:22.276Z,12.03
2018-04-10T05:18:49.674Z,23.53
2018-04-10T05:21:17.038Z,12.17
2018-04-10T05:23:44.437Z,13.77
2018-04-10T05:26:11.902Z,15.00
2018-04-10T05:28:39.307Z,14.20
2018-04-10T05:31:06.709Z,11.07
2018-04-10T05:33:34.074Z,9.37
2018-04-10T05:36:01.466Z,11.20
2018-04-10T05:38:28.932Z,10.93
2018-04-10T05:40:56.303Z,8.53
2018-04-10T05:43:23.818Z,8.47
2018-04-10T05:45:51.209Z,8.57
2018-04-10T05:48:18.632Z,9.50
2018-04-10T05:50:46.103Z,11.23
2018-04-10T05:53:13.517Z,11.67
2018-04-10T05:55:40.981Z,17.33
2018-04-10T05:58:08.415Z,11.20
2018-04-10T06:00:35.814Z,8.67
2018-04-10T06:03:03.194Z,11.73
2018-04-10T06:05:30.657Z,10.13
2018-04-10T06:07:58.065Z,10.20
2018-04-10T06:10:25.460Z,10.90
2018-04-10T06:12:52.854Z,10.30
2018-04-10T06:15:20.253Z,18.10
2018-04-10T06:17:47.639Z,10.77
2018-04-10T06:20:15.014Z,11.10
2018-04-10T06:22:42.452Z,10.27
2018-04-10T06:25:09.830Z,13.30
2018-04-10T06:27:37.208Z,11.30
2018-04-10T06:30:04.603Z,9.80
2018-04-10T06:32:31.990Z,14.83
2018-04-10T06:34:59.373Z,9.53
2018-04-10T06:37:26.767Z,13.63
2018-04-10T06:39:54.152Z,10.33
2018-04-10T06:42:21.529Z,10.97
2018-04-10T06:44:49.023Z,11.33
2018-04-10T06:47:16.419Z,11.87
2018-04-10T06:49:43.796Z,10.60
2018-04-10T06:52:11.291Z,11.10
2018-04-10T06:54:38.684Z,10.37
2018-04-10T06:57:06.065Z,11.80
2018-04-10T06:59:33.451Z,15.20
2018-04-10T07:02:00.850Z,12.17
2018-04-10T07:04:28.223Z,9.50
2018-04-10T07:06:55.618Z,8.70
2018-04-10T07:09:23.055Z,8.83
2018-04-10T07:11:50.561Z,9.07
2018-04-10T07:14:18.093Z,8.37
2018-04-10T07:16:45.474Z,8.40
2018-04-10T07:19:12.863Z,11.67
2018-04-10T07:21:40.271Z,9.20
2018-04-10T07:24:07.656Z,9.13
2018-04-10T07:26:35.051Z,10.37
2018-04-10T07:29:02.578Z,8.47
2018-04-10T07:31:30.021Z,9.33
2018-04-10T07:33:57.415Z,8.70
2018-04-10T07:36:24.807Z,8.73
2018-04-10T07:38:52.248Z,10.63
2018-04-10T07:41:19.647Z,11.17
2018-04-10T07:43:47.022Z,9.60
2018-04-10T07:46:14.467Z,10.37
2018-04-10T07:48:41.924Z,9.10
2018-04-10T07:51:09.339Z,9.80
2018-04-10T07:53:36.727Z,15.67
2018-04-10T07:56:04.179Z,12.00
2018-04-10T07:58:31.582Z,15.23
2018-04-10T08:00:59.084Z,11.50
2018-04-10T08:03:26.542Z,11.20
2018-04-10T08:05:53.935Z,10.43
2018-04-10T08:08:21.323Z,12.30
2018-04-10T08:10:48.799Z,11.33
2018-04-10T08:13:16.247Z,11.07
2018-04-10T08:15:43.671Z,11.30
2018-04-10T08:18:11.735Z,14.40
2018-04-10T08:20:39.284Z,11.33
2018-04-10T08:23:06.677Z,11.53
2018-04-10T08:25:34.173Z,15.10
2018-04-10T08:28:01.608Z,12.93
2018-04-10T08:30:31.766Z,11.37
2018-04-10T08:32:59.329Z,11.17
2018-04-10T08:35:26.714Z,12.90
2018-04-10T08:37:54.148Z,13.43
2018-04-10T08:40:21.495Z,12.87
2018-04-10T08:42:48.919Z,18.03
2018-04-10T08:45:16.478Z,12.60
2018-04-10T08:47:43.917Z,14.07
2018-04-10T08:50:11.288Z,14.83
2018-04-10T08:52:38.708Z,14.93
2018-04-10T08:55:06.097Z,19.27
2018-04-10T08:57:33.478Z,14.10
2018-04-10T09:00:00.926Z,14.13
2018-04-10T09:02:28.332Z,14.33
2018-04-10T09:04:55.851Z,14.13
2018-04-10T09:07:23.230Z,13.80
2018-04-10T09:09:50.636Z,14.73
2018-04-10T09:12:18.015Z,14.40
2018-04-10T09:14:45.449Z,15.47
2018-04-10T09:17:12.856Z,17.07
2018-04-10T09:19:40.282Z,16.13
2018-04-10T09:22:07.707Z,15.30
2018-04-10T09:24:35.143Z,16.17
2018-04-10T09:27:02.542Z,16.23
2018-04-10T09:29:29.936Z,16.53
2018-04-10T09:31:57.331Z,15.77
2018-04-10T09:34:24.718Z,15.63
2018-04-10T09:36:52.110Z,15.83
2018-04-10T09:39:19.489Z,15.97
2018-04-10T09:41:46.880Z,15.50
2018-04-10T09:44:14.358Z,15.50
2018-04-10T09:46:41.742Z,16.93
2018-04-10T09:49:09.133Z,16.20
2018-04-10T09:51:36.614Z,15.37
2018-04-10T09:54:04.029Z,16.63
2018-04-10T09:56:31.406Z,16.33
2018-04-10T09:58:58.899Z,16.27
2018-04-10T10:01:26.285Z,16.70
2018-04-10T10:03:53.816Z,15.23
2018-04-10T10:06:21.277Z,16.30
2018-04-10T10:08:48.651Z,19.10
2018-04-10T10:11:16.144Z,19.07
2018-04-10T10:13:43.554Z,20.67
2018-04-10T10:16:10.944Z,18.53
2018-04-10T10:18:38.332Z,18.57
2018-04-10T10:21:05.833Z,20.20
2018-04-10T10:23:33.578Z,17.40
2018-04-10T10:26:01.083Z,18.37
2018-04-10T10:28:28.406Z,17.47
2018-04-10T10:30:55.796Z,18.80
2018-04-10T10:33:23.186Z,16.73
2018-04-10T10:35:50.579Z,13.53
2018-04-10T10:38:18.004Z,12.67
2018-04-10T10:40:45.382Z,14.37
2018-04-10T10:43:12.767Z,13.63
2018-04-10T10:45:40.142Z,58.47
2018-04-10T10:48:07.548Z,12.87
2018-04-10T10:50:34.938Z,16.07
2018-04-10T10:53:02.477Z,14.83
2018-04-10T10:55:29.871Z,13.13
2018-04-10T10:57:57.259Z,11.93
2018-04-10T11:00:24.725Z,12.53
2018-04-10T11:02:52.148Z,13.40
2018-04-10T11:05:19.545Z,11.53
2018-04-10T11:07:46.951Z,7.63
2018-04-10T11:10:14.300Z,7.30
2018-04-10T11:12:41.685Z,11.00
2018-04-10T11:15:09.064Z,6.80
2018-04-10T11:17:36.447Z,8.47
2018-04-10T11:20:03.924Z,8.63
2018-04-10T11:22:31.570Z,8.17
2018-04-10T11:24:58.993Z,8.10
2018-04-10T11:27:26.367Z,7.50
2018-04-10T11:29:53.942Z,8.13
2018-04-10T11:32:21.282Z,6.57
2018-04-10T11:34:48.663Z,7.10
2018-04-10T11:37:16.050Z,7.30
2018-04-10T11:39:43.600Z,7.30
2018-04-10T11:42:10.978Z,7.73
2018-04-10T11:44:38.363Z,12.60
2018-04-10T11:47:05.758Z,7.33
2018-04-10T11:49:33.420Z,7.20
2018-04-10T11:52:00.892Z,7.53
2018-04-10T11:54:28.263Z,6.67
2018-04-10T11:56:55.646Z,5.90
2018-04-10T11:59:23.084Z,7.47
2018-04-10T12:01:50.463Z,6.10
2018-04-10T12:04:17.844Z,5.27
2018-04-10T12:06:45.222Z,5.97
2018-04-10T12:09:12.897Z,4.83
2018-04-10T12:11:40.343Z,5.40
2018-04-10T12:14:07.746Z,6.23
2018-04-10T12:16:35.387Z,5.93
2018-04-10T12:19:02.848Z,3.93
2018-04-10T12:21:30.223Z,5.60
2018-04-10T12:23:57.631Z,3.60
2018-04-10T12:26:25.127Z,3.20
2018-04-10T12:28:52.569Z,4.20
2018-04-10T12:31:19.972Z,2.70
2018-04-10T12:33:47.539Z,4.13
2018-04-10T12:36:14.992Z,7.53
2018-04-10T12:38:42.611Z,3.60
2018-04-10T12:41:10.104Z,4.33
2018-04-10T12:43:37.674Z,7.37
2018-04-10T12:46:05.249Z,2.87
2018-04-10T12:48:32.659Z,3.40
2018-04-10T12:51:00.150Z,2.53
2018-04-10T12:53:27.759Z,3.03
2018-04-10T12:55:55.225Z,2.50
2018-04-10T12:58:22.635Z,2.07
2018-04-10T13:00:50.143Z,3.00
2018-04-10T13:03:17.554Z,2.77
2018-04-10T13:05:45.038Z,2.87
2018-04-10T13:08:12.594Z,2.13
2018-04-10T13:10:39.981Z,3.83
2018-04-10T13:13:07.560Z,3.13
2018-04-10T13:15:35.122Z,3.03
2018-04-10T13:18:02.621Z,2.10
2018-04-10T13:20:31.121Z,3.20
2018-04-10T13:22:58.684Z,1.97
2018-04-10T13:25:26.397Z,2.00
2018-04-10T13:27:54.336Z,3.57
2018-04-10T13:30:21.983Z,3.63
2018-04-10T13:32:51.496Z,2.40
2018-04-10T13:35:19.300Z,1.90
2018-04-10T13:37:47.391Z,2.00
2018-04-10T13:40:14.818Z,3.17
2018-04-10T13:42:42.216Z,3.30
2018-04-10T13:45:09.590Z,4.20
2018-04-10T13:47:36.979Z,2.77
2018-04-10T13:50:04.549Z,3.37
2018-04-10T13:52:32.099Z,3.53
2018-04-10T13:54:59.502Z,4.07
2018-04-10T13:57:26.885Z,2.97
2018-04-10T13:59:54.281Z,3.20
2018-04-10T14:02:21.750Z,2.63
2018-04-10T14:04:49.145Z,2.20
2018-04-10T14:07:16.544Z,2.57
2018-04-10T14:09:44.006Z,2.97
2018-04-10T14:12:11.403Z,2.03
2018-04-10T14:14:39.695Z,2.90
2018-04-10T14:17:07.143Z,1.80
2018-04-10T14:19:34.581Z,3.00
2018-04-10T14:22:02.043Z,2.40
2018-04-10T14:24:29.417Z,1.70
2018-04-10T14:26:57.015Z,2.87
2018-04-10T14:29:24.414Z,3.73
2018-04-10T14:31:51.898Z,5.33
2018-04-10T14:34:19.309Z,2.17
2018-04-10T14:36:46.692Z,1.70
2018-04-10T14:39:14.262Z,2.00
2018-04-10T14:41:41.794Z,3.57
2018-04-10T14:44:09.261Z,3.93
2018-04-10T14:46:36.643Z,1.60
2018-04-10T14:49:05.123Z,3.03
2018-04-10T14:51:32.533Z,2.20
2018-04-10T14:53:59.919Z,2.80
2018-04-10T14:56:27.295Z,2.87
2018-04-10T14:59:01.189Z,3.07
2018-04-10T15:01:35.090Z,4.37
2018-04-10T15:04:03.255Z,3.80
2018-04-10T15:06:30.610Z,4.70
2018-04-10T15:08:58.848Z,2.13
2018-04-10T15:11:26.224Z,3.37
2018-04-10T15:13:53.638Z,2.47
2018-04-10T15:16:21.026Z,2.90
2018-04-10T15:18:48.404Z,2.47
2018-04-10T15:21:15.787Z,3.83
2018-04-10T15:23:43.328Z,1.87
2018-04-10T15:26:10.880Z,5.00
2018-04-10T15:28:38.372Z,3.20
2018-04-10T15:31:05.789Z,3.13
2018-04-10T15:33:33.205Z,2.17
2018-04-10T15:36:00.618Z,4.63
2018-04-10T15:38:28.007Z,2.60
2018-04-10T15:40:55.391Z,4.30
2018-04-10T15:43:22.770Z,3.30
2018-04-10T15:45:50.138Z,4.50
2018-04-10T15:48:17.532Z,2.50
2018-04-10T15:50:44.962Z,2.40
2018-04-10T15:53:12.342Z,4.67
2018-04-10T15:55:39.721Z,6.13
2018-04-10T15:58:07.178Z,3.93
2018-04-10T16:00:34.642Z,3.50
2018-04-10T16:03:02.038Z,5.03
2018-04-10T16:05:29.419Z,3.57
2018-04-10T16:07:56.822Z,2.60
2018-04-10T16:10:24.257Z,3.23
2018-04-10T16:12:51.634Z,4.20
2018-04-10T16:15:19.019Z,3.90
2018-04-10T16:17:46.390Z,2.20
2018-04-10T16:20:13.822Z,2.50
2018-04-10T16:22:41.209Z,2.40
2018-04-10T16:25:08.617Z,4.03
2018-04-10T16:27:35.986Z,2.13
2018-04-10T16:30:03.863Z,3.43
2018-04-10T16:32:31.243Z,2.90
2018-04-10T16:34:58.761Z,3.60
2018-04-10T16:37:26.135Z,3.93
2018-04-10T16:39:53.570Z,3.77
2018-04-10T16:42:20.926Z,3.50
2018-04-10T16:44:48.307Z,3.20
2018-04-10T16:47:15.708Z,7.03
2018-04-10T16:49:43.165Z,4.27
2018-04-10T16:52:10.661Z,4.00
2018-04-10T16:54:38.065Z,5.03
2018-04-10T16:57:05.510Z,4.63
2018-04-10T16:59:32.917Z,4.00
2018-04-10T17:02:00.361Z,5.13
2018-04-10T17:04:27.791Z,5.57
2018-04-10T17:06:55.211Z,4.47
2018-04-10T17:09:22.588Z,4.90
2018-04-10T17:11:49.967Z,7.17
2018-04-10T17:14:17.351Z,4.47
2018-04-10T17:16:44.740Z,5.37
2018-04-10T17:19:12.603Z,4.40
2018-04-10T17:21:39.994Z,4.03
2018-04-10T17:24:07.387Z,4.07
2018-04-10T17:26:34.778Z,2.93
2018-04-10T17:29:02.150Z,2.50
2018-04-10T17:31:29.544Z,8.40
2018-04-10T17:33:56.996Z,4.10
2018-04-10T17:36:25.354Z,3.27
2018-04-10T17:38:52.881Z,5.57
2018-04-10T17:41:20.251Z,2.83
2018-04-10T17:43:47.646Z,5.33
2018-04-10T17:46:15.009Z,4.90
2018-04-10T17:48:42.395Z,2.63
2018-04-10T17:51:09.771Z,4.50
2018-04-10T17:53:37.227Z,5.60
2018-04-10T17:56:04.745Z,2.07
2018-04-10T17:58:32.167Z,1.97
2018-04-10T18:00:59.558Z,4.30
2018-04-10T18:03:26.926Z,3.37
2018-04-10T18:05:54.309Z,2.93
2018-04-10T18:08:21.764Z,4.63
2018-04-10T18:10:49.140Z,4.67
2018-04-10T18:13:16.517Z,2.90
2018-04-10T18:15:43.984Z,2.57
2018-04-10T18:18:11.342Z,4.60
2018-04-10T18:20:38.787Z,3.23
2018-04-10T18:23:06.207Z,2.17
2018-04-10T18:25:33.611Z,2.23
2018-04-10T18:28:00.986Z,4.57
2018-04-10T18:30:28.442Z,3.47
2018-04-10T18:32:55.820Z,3.97
2018-04-10T18:35:23.267Z,1.30
2018-04-10T18:37:50.627Z,1.67
2018-04-10T18:40:18.023Z,1.87
2018-04-10T18:42:45.411Z,2.60
2018-04-10T18:45:12.792Z,1.40
2018-04-10T18:47:40.179Z,1.40
2018-04-10T18:50:07.710Z,2.30
2018-04-10T18:52:35.964Z,2.80
2018-04-10T18:55:03.375Z,2.83
2018-04-10T18:57:30.751Z,3.63
2018-04-10T18:59:58.172Z,4.50
2018-04-10T19:02:25.564Z,2.87
2018-04-10T19:04:52.959Z,2.90
2018-04-10T19:07:20.319Z,1.87
2018-04-10T19:09:47.845Z,2.30
2018-04-10T19:12:15.250Z,2.37
2018-04-10T19:14:42.659Z,2.53
2018-04-10T19:17:10.067Z,3.13
2018-04-10T19:19:37.566Z,1.30
2018-04-10T19:22:05.020Z,1.33
2018-04-10T19:24:32.575Z,2.50
2018-04-10T19:26:59.961Z,1.20
2018-04-10T19:29:27.437Z,2.20
2018-04-10T19:31:54.878Z,1.27
2018-04-10T19:34:22.267Z,1.20
2018-04-10T19:36:50.478Z,1.10
2018-04-10T19:39:18.034Z,1.50
2018-04-10T19:41:45.443Z,1.07
2018-04-10T19:44:13.284Z,1.13
2018-04-10T19:46:40.795Z,1.17
2018-04-10T19:49:08.240Z,2.00
2018-04-10T19:51:35.652Z,2.07
2018-04-10T19:54:03.140Z,0.90
2018-04-10T19:56:30.573Z,1.83
2018-04-10T19:58:58.071Z,1.83
2018-04-10T20:01:25.562Z,1.30
2018-04-10T20:03:52.997Z,1.27
2018-04-10T20:06:20.396Z,1.90
2018-04-10T20:08:47.872Z,2.20
2018-04-10T20:11:15.332Z,1.63
2018-04-10T20:13:42.781Z,1.90
2018-04-10T20:16:10.183Z,3.63
2018-04-10T20:18:37.575Z,1.60
2018-04-10T20:21:05.127Z,1.63
2018-04-10T20:23:32.563Z,1.70
2018-04-10T20:25:59.972Z,1.17
2018-04-10T20:28:27.354Z,2.33
2018-04-10T20:30:54.734Z,3.03
2018-04-10T20:33:22.171Z,1.53
2018-04-10T20:35:51.520Z,1.30
2018-04-10T20:38:19.999Z,1.27
2018-04-10T20:40:47.505Z,3.10
2018-04-10T20:43:14.905Z,1.97
2018-04-10T20:45:43.090Z,1.70
2018-04-10T20:48:10.480Z,1.77
2018-04-10T20:50:37.888Z,1.47
2018-04-10T20:53:05.288Z,1.80
2018-04-10T20:55:32.969Z,2.03
2018-04-10T20:58:00.475Z,3.73
2018-04-10T21:00:27.976Z,1.77
2018-04-10T21:02:56.385Z,1.43
2018-04-10T21:05:23.759Z,1.47
2018-04-10T21:07:51.199Z,1.77
2018-04-10T21:10:18.591Z,1.93
2018-04-10T21:12:46.032Z,2.27
2018-04-10T21:15:13.521Z,2.67
2018-04-10T21:17:40.996Z,2.53
2018-04-10T21:20:08.392Z,2.20
2018-04-10T21:22:36.184Z,3.33
2018-04-10T21:25:04.863Z,3.57
2018-04-10T21:27:33.543Z,3.67
2018-04-10T21:30:01.416Z,2.53
2018-04-10T21:32:29.503Z,2.90
2018-04-10T21:34:57.369Z,1.97
2018-04-10T21:37:25.248Z,3.50
2018-04-10T21:39:53.304Z,1.70
2018-04-10T21:42:21.452Z,3.27
2018-04-10T21:44:49.254Z,4.43
2018-04-10T21:47:16.933Z,3.20
2018-04-10T21:49:44.650Z,3.50
2018-04-10T21:52:13.039Z,2.47
2018-04-10T21:54:41.005Z,1.83
2018-04-10T21:57:08.667Z,2.17
2018-04-10T21:59:36.348Z,1.30
2018-04-10T22:02:04.293Z,2.70
2018-04-10T22:04:32.150Z,5.00
2018-04-10T22:06:59.847Z,2.60
2018-04-10T22:09:27.663Z,3.03
2018-04-10T22:11:55.532Z,2.93
2018-04-10T22:14:23.985Z,3.47
2018-04-10T22:16:55.412Z,1.90
2018-04-10T22:19:23.080Z,3.10
2018-04-10T22:21:50.753Z,3.00
2018-04-10T22:24:18.502Z,3.10
2018-04-10T22:26:46.124Z,3.20
2018-04-10T22:29:13.792Z,4.50
2018-04-10T22:31:41.433Z,7.80
2018-04-10T22:34:09.059Z,2.67
2018-04-10T22:36:36.625Z,2.87
2018-04-10T22:39:04.159Z,3.00
2018-04-10T22:41:31.573Z,2.27
2018-04-10T22:43:58.952Z,4.90
2018-04-10T22:46:26.335Z,3.80
2018-04-10T22:48:53.736Z,1.93
2018-04-10T22:51:21.177Z,3.23
2018-04-10T22:53:48.567Z,3.17
2018-04-10T22:56:15.988Z,3.33
2018-04-10T22:58:43.384Z,3.40
2018-04-10T23:01:10.786Z,6.13
2018-04-10T23:03:38.250Z,4.83
2018-04-10T23:06:05.728Z,3.97
2018-04-10T23:08:33.180Z,3.17
2018-04-10T23:11:00.681Z,3.20
2018-04-10T23:13:28.139Z,8.60
2018-04-10T23:15:55.548Z,4.33
2018-04-10T23:18:22.925Z,3.10
2018-04-10T23:20:50.320Z,3.70
2018-04-10T23:23:17.725Z,5.50
2018-04-10T23:25:45.124Z,4.20
2018-04-10T23:28:12.583Z,3.73
2018-04-10T23:30:39.994Z,4.00
2018-04-10T23:33:08.316Z,4.10
2018-04-10T23:35:35.725Z,4.60
2018-04-10T23:38:03.178Z,6.57
2018-04-10T23:40:30.584Z,3.67
2018-04-10T23:42:58.010Z,4.53
2018-04-10T23:45:25.404Z,4.10
2018-04-10T23:47:52.808Z,4.67
2018-04-10T23:50:20.247Z,4.30
2018-04-10T23:52:48.348Z,4.43
2018-04-10T23:55:15.731Z,5.10
2018-04-10T23:57:43.162Z,4.87
